createdAt,value
2022-08-20T00:00:28.322Z,29.40
2022-08-20T00:01:28.317Z,29.20
2022-08-20T00:02:28.271Z,28.80
2022-08-20T00:03:28.251Z,30.60
2022-08-20T00:04:28.281Z,30.30
2022-08-20T00:05:28.262Z,26.90
2022-08-20T00:06:28.229Z,30.20
2022-08-20T00:07:28.212Z,31.50
2022-08-20T00:08:28.211Z,29.00
2022-08-20T00:09:28.198Z,33.00
2022-08-20T00:10:28.222Z,28.30
2022-08-20T00:11:29.017Z,31.50
2022-08-20T00:12:28.191Z,29.40
2022-08-20T00:13:28.150Z,30.20
2022-08-20T00:14:28.212Z,28.50
2022-08-20T00:15:28.129Z,30.10
2022-08-20T00:16:28.123Z,30.10
2022-08-20T00:17:28.113Z,32.50
2022-08-20T00:18:28.103Z,32.80
2022-08-20T00:19:28.149Z,30.30
2022-08-20T00:20:28.081Z,32.00
2022-08-20T00:21:28.064Z,31.70
2022-08-20T00:22:28.055Z,28.80
2022-08-20T00:23:28.043Z,31.30
2022-08-20T00:24:28.042Z,30.80
2022-08-20T00:25:28.062Z,30.70
2022-08-20T00:26:28.014Z,30.80
2022-08-20T00:27:28.032Z,31.20
2022-08-20T00:28:27.992Z,33.40
2022-08-20T00:29:27.988Z,31.90
2022-08-20T00:30:28.006Z,32.20
2022-08-20T00:31:27.953Z,32.60
2022-08-20T00:32:27.985Z,31.90
2022-08-20T00:33:27.932Z,31.80
2022-08-20T00:34:27.944Z,31.50
2022-08-20T00:35:27.913Z,29.50
2022-08-20T00:36:32.340Z,30.30
2022-08-20T00:37:28.920Z,33.10
2022-08-20T00:38:27.883Z,31.00
2022-08-20T00:39:27.872Z,30.80
2022-08-20T00:40:27.920Z,29.80
2022-08-20T00:41:27.853Z,28.80
2022-08-20T00:42:27.843Z,28.40
2022-08-20T00:43:27.833Z,29.90
2022-08-20T00:44:27.823Z,29.90
2022-08-20T00:45:27.813Z,26.90
2022-08-20T00:46:28.198Z,29.60
2022-08-20T00:47:27.813Z,31.70
2022-08-20T00:48:27.813Z,28.80
2022-08-20T00:49:27.764Z,27.00
2022-08-20T00:50:27.793Z,29.30
2022-08-20T00:51:28.143Z,30.20
2022-08-20T00:52:27.733Z,31.00
2022-08-20T00:53:27.723Z,29.70
2022-08-20T00:54:27.723Z,30.40
2022-08-20T00:55:31.521Z,33.50
2022-08-20T00:56:27.696Z,31.40
2022-08-20T00:57:27.704Z,28.70
2022-08-20T00:58:28.672Z,31.10
2022-08-20T00:59:27.654Z,30.40
2022-08-20T01:00:27.657Z,29.20
2022-08-20T01:01:27.702Z,27.30
2022-08-20T01:02:27.693Z,30.40
2022-08-20T01:03:27.675Z,28.80
2022-08-20T01:04:27.631Z,28.50
2022-08-20T01:05:29.411Z,29.00
2022-08-20T01:06:27.594Z,27.90
2022-08-20T01:07:27.574Z,27.60
2022-08-20T01:08:27.564Z,29.70
2022-08-20T01:09:50.582Z,27.30
2022-08-20T01:10:28.545Z,27.90
2022-08-20T01:11:27.564Z,27.00
2022-08-20T01:12:27.527Z,27.30
2022-08-20T01:13:27.520Z,27.10
2022-08-20T01:14:27.555Z,26.20
2022-08-20T01:15:31.214Z,27.40
2022-08-20T01:16:28.140Z,26.50
2022-08-20T01:17:27.465Z,27.90
2022-08-20T01:18:27.465Z,27.00
2022-08-20T01:19:29.462Z,25.30
2022-08-20T01:20:27.475Z,24.90
2022-08-20T01:21:27.422Z,26.10
2022-08-20T01:22:27.474Z,26.40
2022-08-20T01:23:27.445Z,28.30
2022-08-20T01:24:27.428Z,25.00
2022-08-20T01:25:27.401Z,26.00
2022-08-20T01:26:27.426Z,24.50
2022-08-20T01:27:27.355Z,23.50
2022-08-20T01:28:27.356Z,25.40
2022-08-20T01:29:27.338Z,28.90
2022-08-20T01:30:27.327Z,25.40
2022-08-20T01:31:27.346Z,24.60
2022-08-20T01:32:27.317Z,27.70
2022-08-20T01:33:27.295Z,25.80
2022-08-20T01:34:27.285Z,25.70
2022-08-20T01:35:27.277Z,25.50
2022-08-20T01:36:27.286Z,25.10
2022-08-20T01:37:31.305Z,25.70
2022-08-20T01:38:27.243Z,24.70
2022-08-20T01:39:27.236Z,25.30
2022-08-20T01:40:27.216Z,28.20
2022-08-20T01:41:28.793Z,26.90
2022-08-20T01:42:27.198Z,26.50
2022-08-20T01:43:27.188Z,23.80
2022-08-20T01:44:27.188Z,25.20
2022-08-20T01:45:27.166Z,22.30
2022-08-20T01:46:27.158Z,23.40
2022-08-20T01:47:27.196Z,28.60
2022-08-20T01:48:27.147Z,23.70
2022-08-20T01:49:27.126Z,24.50
2022-08-20T01:50:27.139Z,25.30
2022-08-20T01:51:27.106Z,23.60
2022-08-20T01:52:27.097Z,25.80
2022-08-20T01:53:27.117Z,23.70
2022-08-20T01:54:27.067Z,24.70
2022-08-20T01:55:27.057Z,24.30
2022-08-20T01:56:27.056Z,26.60
2022-08-20T01:57:27.391Z,23.30
2022-08-20T01:58:27.036Z,25.00
2022-08-20T01:59:27.018Z,22.30
2022-08-20T02:00:27.050Z,24.60
2022-08-20T02:01:27.083Z,24.90
2022-08-20T02:02:26.997Z,24.90
2022-08-20T02:03:26.987Z,24.40
2022-08-20T02:04:26.968Z,25.10
2022-08-20T02:05:30.483Z,24.00
2022-08-20T02:06:26.964Z,24.60
2022-08-20T02:07:26.947Z,25.50
2022-08-20T02:08:26.967Z,24.90
2022-08-20T02:09:26.909Z,23.10
2022-08-20T02:10:26.908Z,24.30
2022-08-20T02:11:26.917Z,24.20
2022-08-20T02:12:26.885Z,24.40
2022-08-20T02:13:26.867Z,24.80
2022-08-20T02:14:26.879Z,27.80
2022-08-20T02:15:35.224Z,26.60
2022-08-20T02:16:27.839Z,25.70
2022-08-20T02:17:26.862Z,24.40
2022-08-20T02:18:26.818Z,24.80
2022-08-20T02:19:26.812Z,25.50
2022-08-20T02:20:26.798Z,24.80
2022-08-20T02:21:26.787Z,23.20
2022-08-20T02:22:26.799Z,24.80
2022-08-20T02:23:26.788Z,27.70
2022-08-20T02:24:26.771Z,23.40
2022-08-20T02:25:26.738Z,27.80
2022-08-20T02:26:26.736Z,25.60
2022-08-20T02:27:26.757Z,24.80
2022-08-20T02:28:26.752Z,27.30
2022-08-20T02:29:26.732Z,25.90
2022-08-20T02:30:27.760Z,25.70
2022-08-20T02:31:26.681Z,24.50
2022-08-20T02:32:33.666Z,27.90
2022-08-20T02:33:27.679Z,26.70
2022-08-20T02:34:26.677Z,25.20
2022-08-20T02:35:26.639Z,30.60
2022-08-20T02:36:26.630Z,25.30
2022-08-20T02:37:26.609Z,25.60
2022-08-20T02:38:26.609Z,27.30
2022-08-20T02:39:26.624Z,25.90
2022-08-20T02:40:27.490Z,27.40
2022-08-20T02:41:26.569Z,26.80
2022-08-20T02:42:26.563Z,28.30
2022-08-20T02:43:26.550Z,27.60
2022-08-20T02:44:26.542Z,26.80
2022-08-20T02:45:26.587Z,27.90
2022-08-20T02:46:26.549Z,27.50
2022-08-20T02:47:26.500Z,26.90
2022-08-20T02:48:26.490Z,27.00
2022-08-20T02:49:26.488Z,26.20
2022-08-20T02:50:26.479Z,26.20
2022-08-20T02:51:29.698Z,28.60
2022-08-20T02:52:26.463Z,25.10
2022-08-20T02:53:26.456Z,27.00
2022-08-20T02:54:26.430Z,25.90
2022-08-20T02:55:28.006Z,29.70
2022-08-20T02:56:26.418Z,26.80
2022-08-20T02:57:26.399Z,26.10
2022-08-20T02:58:26.388Z,28.00
2022-08-20T02:59:26.372Z,28.10
2022-08-20T03:00:26.370Z,28.20
2022-08-20T03:01:26.436Z,29.50
2022-08-20T03:02:26.352Z,29.30
2022-08-20T03:03:26.351Z,30.50
2022-08-20T03:04:26.324Z,27.50
2022-08-20T03:05:26.321Z,26.60
2022-08-20T03:06:26.310Z,28.50
2022-08-20T03:07:26.313Z,27.60
2022-08-20T03:08:26.281Z,28.90
2022-08-20T03:09:26.275Z,28.20
2022-08-20T03:10:26.292Z,26.90
2022-08-20T03:11:26.260Z,29.20
2022-08-20T03:12:26.231Z,27.30
2022-08-20T03:13:26.261Z,28.40
2022-08-20T03:14:26.221Z,28.80
2022-08-20T03:15:26.232Z,28.40
2022-08-20T03:16:26.193Z,29.50
2022-08-20T03:17:26.211Z,27.90
2022-08-20T03:18:26.172Z,30.60
2022-08-20T03:19:26.162Z,30.10
2022-08-20T03:20:26.151Z,29.80
2022-08-20T03:21:26.182Z,27.70
2022-08-20T03:22:26.132Z,28.00
2022-08-20T03:23:26.140Z,27.60
2022-08-20T03:24:26.111Z,31.20
2022-08-20T03:25:26.092Z,28.20
2022-08-20T03:26:26.083Z,29.30
2022-08-20T03:27:27.710Z,28.00
2022-08-20T03:28:27.061Z,30.30
2022-08-20T03:29:26.054Z,28.80
2022-08-20T03:30:26.043Z,31.80
2022-08-20T03:31:26.034Z,30.40
2022-08-20T03:32:26.119Z,28.50
2022-08-20T03:33:26.043Z,27.50
2022-08-20T03:34:25.993Z,30.40
2022-08-20T03:35:25.992Z,29.20
2022-08-20T03:36:28.107Z,30.40
2022-08-20T03:37:25.970Z,31.00
2022-08-20T03:38:32.437Z,28.00
2022-08-20T03:39:26.979Z,30.60
2022-08-20T03:40:25.933Z,31.20
2022-08-20T03:41:25.932Z,30.80
2022-08-20T03:42:25.903Z,29.40
2022-08-20T03:43:25.902Z,32.60
2022-08-20T03:44:25.882Z,29.70
2022-08-20T03:45:25.912Z,29.20
2022-08-20T03:46:25.873Z,29.30
2022-08-20T03:47:25.860Z,29.70
2022-08-20T03:48:25.846Z,29.00
2022-08-20T03:49:25.895Z,30.90
2022-08-20T03:50:25.822Z,33.20
2022-08-20T03:51:25.833Z,29.50
2022-08-20T03:52:25.804Z,33.80
2022-08-20T03:53:25.823Z,29.00
2022-08-20T03:54:30.241Z,30.20
2022-08-20T03:55:26.792Z,28.20
2022-08-20T03:56:25.764Z,29.60
2022-08-20T03:57:25.784Z,31.50
2022-08-20T03:58:31.609Z,29.30
2022-08-20T03:59:26.795Z,30.00
2022-08-20T04:00:25.744Z,30.20
2022-08-20T04:01:45.592Z,29.90
2022-08-20T04:02:26.703Z,30.30
2022-08-20T04:03:25.692Z,33.00
2022-08-20T04:04:25.683Z,29.40
2022-08-20T04:05:25.676Z,30.70
2022-08-20T04:06:25.685Z,30.90
2022-08-20T04:07:25.678Z,29.70
2022-08-20T04:08:25.633Z,32.20
2022-08-20T04:09:25.627Z,31.50
2022-08-20T04:10:25.604Z,34.10
2022-08-20T04:11:25.602Z,31.70
2022-08-20T04:12:25.614Z,33.70
2022-08-20T04:13:25.574Z,32.30
2022-08-20T04:14:25.565Z,35.30
2022-08-20T04:15:25.555Z,31.30
2022-08-20T04:16:25.553Z,33.00
2022-08-20T04:17:25.566Z,34.70
2022-08-20T04:18:25.525Z,30.40
2022-08-20T04:19:25.514Z,30.10
2022-08-20T04:20:25.494Z,32.80
2022-08-20T04:21:25.518Z,35.10
2022-08-20T04:22:25.475Z,35.10
2022-08-20T04:23:25.468Z,33.10
2022-08-20T04:24:31.660Z,33.50
2022-08-20T04:25:26.467Z,33.30
2022-08-20T04:26:25.435Z,36.00
2022-08-20T04:27:25.439Z,31.50
2022-08-20T04:28:25.445Z,33.90
2022-08-20T04:29:25.415Z,36.40
2022-08-20T04:30:26.395Z,34.80
2022-08-20T04:31:25.705Z,35.70
2022-08-20T04:32:25.368Z,37.20
2022-08-20T04:33:33.718Z,35.10
2022-08-20T04:34:26.375Z,38.80
2022-08-20T04:35:25.350Z,39.10
2022-08-20T04:36:25.566Z,36.10
2022-08-20T04:37:25.315Z,38.00
2022-08-20T04:38:25.335Z,34.80
2022-08-20T04:39:26.295Z,36.40
2022-08-20T04:40:25.282Z,36.10
2022-08-20T04:41:25.289Z,33.80
2022-08-20T04:42:25.395Z,35.50
2022-08-20T04:43:25.256Z,37.00
2022-08-20T04:45:20.244Z,34.40
2022-08-20T04:46:20.223Z,34.70
2022-08-20T04:47:20.222Z,33.50
2022-08-20T04:48:21.232Z,36.20
2022-08-20T04:49:20.226Z,37.60
2022-08-20T04:50:20.219Z,40.30
2022-08-20T04:51:23.130Z,36.40
2022-08-20T04:52:20.163Z,42.20
2022-08-20T04:53:25.309Z,48.90
2022-08-20T04:54:21.174Z,35.30
2022-08-20T04:55:20.142Z,36.80
2022-08-20T04:56:20.173Z,34.40
2022-08-20T04:57:20.125Z,37.70
2022-08-20T04:58:20.114Z,40.00
2022-08-20T04:59:20.142Z,35.50
2022-08-20T05:00:20.083Z,34.50
2022-08-20T05:01:20.089Z,34.80
2022-08-20T05:02:20.074Z,32.30
2022-08-20T05:03:20.042Z,33.80
2022-08-20T05:04:20.195Z,35.10
2022-08-20T05:05:20.062Z,33.80
2022-08-20T05:06:20.024Z,33.30
2022-08-20T05:07:20.014Z,35.20
2022-08-20T05:08:20.442Z,33.70
2022-08-20T05:09:20.023Z,32.70
2022-08-20T05:10:19.974Z,36.70
2022-08-20T05:11:33.854Z,32.20
2022-08-20T05:12:20.974Z,33.90
2022-08-20T05:13:23.054Z,34.30
2022-08-20T05:14:20.973Z,35.60
2022-08-20T05:15:19.914Z,42.00
2022-08-20T05:16:19.906Z,38.90
2022-08-20T05:17:19.904Z,32.90
2022-08-20T05:18:19.916Z,35.50
2022-08-20T05:19:19.894Z,31.70
2022-08-20T05:20:19.865Z,30.30
2022-08-20T05:21:19.856Z,31.60
2022-08-20T05:22:19.877Z,31.80
2022-08-20T05:23:19.844Z,33.70
2022-08-20T05:24:19.826Z,33.80
2022-08-20T05:25:19.834Z,34.90
2022-08-20T05:26:19.805Z,32.90
2022-08-20T05:27:24.730Z,32.60
2022-08-20T05:28:20.802Z,32.10
2022-08-20T05:29:19.784Z,30.60
2022-08-20T05:30:19.764Z,32.50
2022-08-20T05:31:19.769Z,31.70
2022-08-20T05:32:19.745Z,33.80
2022-08-20T05:33:19.752Z,32.80
2022-08-20T05:34:19.744Z,34.40
2022-08-20T05:35:19.703Z,32.10
2022-08-20T05:36:19.725Z,33.30
2022-08-20T05:37:19.686Z,33.50
2022-08-20T05:38:19.677Z,34.60
2022-08-20T05:39:19.671Z,34.70
2022-08-20T05:40:19.754Z,35.90
2022-08-20T05:41:28.758Z,33.70
2022-08-20T05:42:20.636Z,34.40
2022-08-20T05:43:19.635Z,35.00
2022-08-20T05:44:19.639Z,33.90
2022-08-20T05:45:19.607Z,34.40
2022-08-20T05:46:19.678Z,34.80
2022-08-20T05:47:19.606Z,36.50
2022-08-20T05:48:19.566Z,37.00
2022-08-20T05:49:19.575Z,36.50
2022-08-20T05:50:23.286Z,36.40
2022-08-20T05:51:19.558Z,36.00
2022-08-20T05:52:19.556Z,35.90
2022-08-20T05:53:19.516Z,34.60
2022-08-20T05:54:19.550Z,36.80
2022-08-20T05:55:19.496Z,34.40
2022-08-20T05:56:19.486Z,35.70
2022-08-20T05:57:20.503Z,36.00
2022-08-20T05:58:19.475Z,39.50
2022-08-20T05:59:23.895Z,36.30
2022-08-20T06:00:19.455Z,37.40
2022-08-20T06:01:19.534Z,34.20
2022-08-20T06:02:19.605Z,35.70
2022-08-20T06:03:19.427Z,34.30
2022-08-20T06:04:19.398Z,34.20
2022-08-20T06:05:19.416Z,34.10
2022-08-20T06:06:44.220Z,38.20
2022-08-20T06:07:20.407Z,36.00
2022-08-20T06:08:19.347Z,34.10
2022-08-20T06:09:28.021Z,35.20
2022-08-20T06:10:20.326Z,35.10
2022-08-20T06:11:19.328Z,37.70
2022-08-20T06:12:19.368Z,37.20
2022-08-20T06:13:19.347Z,37.50
2022-08-20T06:14:19.337Z,34.40
2022-08-20T06:15:19.307Z,38.00
2022-08-20T06:16:19.277Z,38.30
2022-08-20T06:17:19.257Z,39.30
2022-08-20T06:18:27.553Z,37.70
2022-08-20T06:19:26.129Z,37.20
2022-08-20T06:20:20.227Z,39.60
2022-08-20T06:21:19.225Z,38.50
2022-08-20T06:22:24.261Z,36.70
2022-08-20T06:23:20.196Z,39.30
2022-08-20T06:24:19.180Z,40.00
2022-08-20T06:25:19.207Z,38.50
2022-08-20T06:26:24.080Z,36.90
2022-08-20T06:27:20.167Z,38.90
2022-08-20T06:28:19.128Z,39.60
2022-08-20T06:29:19.202Z,39.10
2022-08-20T06:30:19.119Z,39.90
2022-08-20T06:31:19.125Z,40.20
2022-08-20T06:32:19.145Z,41.80
2022-08-20T06:33:19.111Z,41.10
2022-08-20T06:34:19.067Z,39.20
2022-08-20T06:35:20.109Z,42.40
2022-08-20T06:36:19.181Z,38.00
2022-08-20T06:37:19.089Z,42.70
2022-08-20T06:38:19.049Z,42.10
2022-08-20T06:39:19.035Z,42.20
2022-08-20T06:40:19.070Z,40.00
2022-08-20T06:41:19.009Z,40.80
2022-08-20T06:42:20.660Z,43.60
2022-08-20T06:43:19.009Z,44.00
2022-08-20T06:44:18.967Z,42.30
2022-08-20T06:45:18.959Z,39.40
2022-08-20T06:46:18.938Z,41.40
2022-08-20T06:47:18.940Z,41.90
2022-08-20T06:48:18.957Z,44.00
2022-08-20T06:49:18.918Z,44.30
2022-08-20T06:50:18.921Z,41.00
2022-08-20T06:51:18.979Z,43.50
2022-08-20T06:52:18.899Z,43.00
2022-08-20T06:53:18.869Z,45.30
2022-08-20T06:54:18.897Z,46.50
2022-08-20T06:55:18.911Z,44.00
2022-08-20T06:56:18.838Z,44.20
2022-08-20T06:57:18.839Z,45.30
2022-08-20T06:58:35.606Z,43.10
2022-08-20T06:59:19.806Z,39.80
2022-08-20T07:00:18.818Z,38.90
2022-08-20T07:01:18.848Z,37.40
2022-08-20T07:02:18.770Z,36.60
2022-08-20T07:03:18.781Z,36.60
2022-08-20T07:04:18.779Z,42.80
2022-08-20T07:05:18.781Z,36.80
2022-08-20T07:06:18.740Z,36.70
2022-08-20T07:07:18.741Z,35.50
2022-08-20T07:08:18.779Z,37.50
2022-08-20T07:09:18.717Z,37.70
2022-08-20T07:10:18.712Z,36.00
2022-08-20T07:11:18.680Z,35.50
2022-08-20T07:12:18.669Z,37.40
2022-08-20T07:13:18.686Z,35.50
2022-08-20T07:14:18.648Z,34.90
2022-08-20T07:15:18.650Z,35.90
2022-08-20T07:16:18.650Z,37.80
2022-08-20T07:17:18.628Z,37.00
2022-08-20T07:18:28.312Z,37.90
2022-08-20T07:19:19.621Z,37.50
2022-08-20T07:20:18.580Z,38.40
2022-08-20T07:21:18.771Z,40.00
2022-08-20T07:22:18.592Z,37.70
2022-08-20T07:23:18.560Z,37.60
2022-08-20T07:24:18.544Z,35.40
2022-08-20T07:25:18.560Z,37.80
2022-08-20T07:26:18.604Z,37.80
2022-08-20T07:27:18.511Z,33.70
2022-08-20T07:28:18.491Z,35.60
2022-08-20T07:29:21.564Z,34.00
2022-08-20T07:30:18.490Z,30.90
2022-08-20T07:31:20.421Z,31.50
2022-08-20T07:32:18.500Z,31.50
2022-08-20T07:33:18.471Z,32.60
2022-08-20T07:34:19.584Z,43.60
2022-08-20T07:35:18.422Z,33.00
2022-08-20T07:36:18.441Z,32.30
2022-08-20T07:37:18.401Z,32.70
2022-08-20T07:38:18.392Z,33.10
2022-08-20T07:39:18.384Z,34.90
2022-08-20T07:40:21.383Z,39.90
2022-08-20T07:41:19.365Z,35.40
2022-08-20T07:42:18.353Z,36.90
2022-08-20T07:43:18.343Z,37.50
2022-08-20T07:44:18.330Z,37.60
2022-08-20T07:45:18.321Z,38.20
2022-08-20T07:46:20.830Z,34.90
2022-08-20T07:47:18.303Z,33.40
2022-08-20T07:48:27.996Z,35.60
2022-08-20T07:49:19.285Z,37.30
2022-08-20T07:50:18.291Z,31.70
2022-08-20T07:51:18.252Z,33.00
2022-08-20T07:52:18.251Z,30.40
2022-08-20T07:53:18.243Z,29.10
2022-08-20T07:54:18.282Z,29.80
2022-08-20T07:55:18.212Z,19.80
2022-08-20T07:56:18.232Z,19.30
2022-08-20T07:57:18.192Z,18.80
2022-08-20T07:58:18.183Z,18.90
2022-08-20T07:59:18.193Z,19.90
2022-08-20T08:00:18.182Z,19.60
2022-08-20T08:01:18.229Z,19.20
2022-08-20T08:02:18.223Z,18.30
2022-08-20T08:03:18.302Z,17.90
2022-08-20T08:04:18.113Z,16.90
2022-08-20T08:05:18.112Z,15.60
2022-08-20T08:06:28.495Z,17.60
2022-08-20T08:07:19.145Z,16.20
2022-08-20T08:08:18.073Z,14.80
2022-08-20T08:09:18.130Z,15.20
2022-08-20T08:10:18.044Z,15.20
2022-08-20T08:11:18.057Z,16.10
2022-08-20T08:12:18.081Z,16.30
2022-08-20T08:13:18.025Z,14.80
2022-08-20T08:14:18.014Z,19.00
2022-08-20T08:15:18.026Z,14.40
2022-08-20T08:16:17.988Z,14.30
2022-08-20T08:17:17.985Z,13.00
2022-08-20T08:18:17.965Z,16.20
2022-08-20T08:19:17.954Z,16.20
2022-08-20T08:20:17.945Z,15.10
2022-08-20T08:21:17.983Z,15.50
2022-08-20T08:22:17.914Z,14.90
2022-08-20T08:23:24.543Z,13.40
2022-08-20T08:24:21.661Z,14.40
2022-08-20T08:25:17.894Z,12.00
2022-08-20T08:26:19.253Z,11.50
2022-08-20T08:27:17.896Z,11.40
2022-08-20T08:28:17.933Z,11.90
2022-08-20T08:29:17.844Z,15.00
2022-08-20T08:30:17.843Z,13.40
2022-08-20T08:31:17.825Z,12.00
2022-08-20T08:32:17.845Z,11.60
2022-08-20T08:33:17.805Z,11.40
2022-08-20T08:34:17.872Z,9.90
2022-08-20T08:35:17.786Z,9.20
2022-08-20T08:36:17.802Z,8.70
2022-08-20T08:37:17.765Z,11.60
2022-08-20T08:38:17.757Z,8.80
2022-08-20T08:39:17.805Z,10.90
2022-08-20T08:40:17.754Z,10.30
2022-08-20T08:41:17.726Z,12.30
2022-08-20T08:42:17.716Z,10.50
2022-08-20T08:43:21.413Z,7.90
2022-08-20T08:44:17.686Z,8.20
2022-08-20T08:45:17.709Z,11.00
2022-08-20T08:46:17.693Z,9.40
2022-08-20T08:47:17.656Z,9.70
2022-08-20T08:48:18.677Z,7.70
2022-08-20T08:49:17.666Z,8.10
2022-08-20T08:50:24.879Z,8.30
2022-08-20T08:51:18.615Z,8.10
2022-08-20T08:52:17.616Z,9.60
2022-08-20T08:53:17.597Z,7.80
2022-08-20T08:54:17.595Z,7.70
2022-08-20T08:55:17.596Z,7.40
2022-08-20T08:56:17.557Z,9.70
2022-08-20T08:57:17.557Z,9.70
2022-08-20T08:58:17.667Z,10.30
2022-08-20T08:59:17.560Z,10.50
2022-08-20T09:00:17.620Z,10.90
2022-08-20T09:01:55.360Z,9.00
2022-08-20T09:02:18.539Z,7.20
2022-08-20T09:03:17.508Z,9.40
2022-08-20T09:04:17.478Z,8.90
2022-08-20T09:05:17.499Z,8.00
2022-08-20T09:06:17.486Z,8.30
2022-08-20T09:07:17.448Z,7.30
2022-08-20T09:08:17.444Z,8.80
2022-08-20T09:09:17.427Z,9.60
2022-08-20T09:10:17.433Z,8.30
2022-08-20T09:11:18.438Z,7.00
2022-08-20T09:12:17.387Z,7.60
2022-08-20T09:13:17.427Z,8.40
2022-08-20T09:14:17.370Z,9.70
2022-08-20T09:15:17.407Z,8.50
2022-08-20T09:16:17.355Z,6.60
2022-08-20T09:17:17.368Z,10.10
2022-08-20T09:18:17.328Z,11.60
2022-08-20T09:19:17.328Z,8.80
2022-08-20T09:20:17.311Z,9.50
2022-08-20T09:21:17.298Z,9.70
2022-08-20T09:22:17.285Z,9.10
2022-08-20T09:23:17.308Z,6.30
2022-08-20T09:24:17.260Z,7.50
2022-08-20T09:25:17.278Z,5.70
2022-08-20T09:26:17.249Z,8.80
2022-08-20T09:27:17.237Z,5.90
2022-08-20T09:28:17.258Z,5.50
2022-08-20T09:29:17.209Z,7.00
2022-08-20T09:30:17.198Z,5.20
2022-08-20T09:31:18.297Z,6.90
2022-08-20T09:32:17.345Z,4.50
2022-08-20T09:33:17.170Z,5.20
2022-08-20T09:34:17.159Z,4.10
2022-08-20T09:35:17.150Z,5.20
2022-08-20T09:36:31.803Z,5.40
2022-08-20T09:37:18.182Z,4.80
2022-08-20T09:38:17.118Z,7.30
2022-08-20T09:39:17.110Z,6.40
2022-08-20T09:40:21.218Z,7.60
2022-08-20T09:41:17.081Z,8.60
2022-08-20T09:42:17.100Z,8.40
2022-08-20T09:43:17.069Z,8.60
2022-08-20T09:44:17.060Z,7.80
2022-08-20T09:45:17.043Z,10.30
2022-08-20T09:46:17.031Z,12.70
2022-08-20T09:47:17.021Z,11.60
2022-08-20T09:48:17.060Z,10.00
2022-08-20T09:49:17.001Z,9.90
2022-08-20T09:50:17.021Z,9.70
2022-08-20T09:51:16.972Z,12.40
2022-08-20T09:52:16.975Z,9.90
2022-08-20T09:53:16.981Z,10.70
2022-08-20T09:54:16.949Z,9.80
2022-08-20T09:55:16.961Z,11.40
2022-08-20T09:56:16.928Z,9.20
2022-08-20T09:57:16.912Z,8.30
2022-08-20T09:58:16.923Z,9.40
2022-08-20T09:59:16.891Z,8.60
2022-08-20T10:00:16.882Z,9.30
2022-08-20T10:01:17.038Z,9.40
2022-08-20T10:02:16.902Z,8.80
2022-08-20T10:03:16.843Z,8.20
2022-08-20T10:04:16.842Z,17.30
2022-08-20T10:05:16.822Z,11.90
2022-08-20T10:06:16.821Z,7.50
2022-08-20T10:07:16.842Z,6.90
2022-08-20T10:08:16.802Z,8.00
2022-08-20T10:09:16.812Z,9.50
2022-08-20T10:10:16.772Z,11.00
2022-08-20T10:11:16.771Z,10.10
2022-08-20T10:12:16.761Z,10.40
2022-08-20T10:13:16.763Z,12.60
2022-08-20T10:14:16.775Z,12.20
2022-08-20T10:15:16.723Z,13.20
2022-08-20T10:16:16.723Z,9.00
2022-08-20T10:17:16.702Z,12.30
2022-08-20T10:18:16.693Z,9.30
2022-08-20T10:19:16.710Z,9.70
2022-08-20T10:20:16.662Z,10.80
2022-08-20T10:21:16.652Z,13.80
2022-08-20T10:22:16.652Z,8.80
2022-08-20T10:23:16.634Z,7.70
2022-08-20T10:24:16.627Z,9.80
2022-08-20T10:25:16.634Z,8.70
2022-08-20T10:26:16.603Z,10.60
2022-08-20T10:27:16.591Z,10.70
2022-08-20T10:28:16.583Z,9.40
2022-08-20T10:29:16.573Z,10.80
2022-08-20T10:30:16.584Z,10.80
2022-08-20T10:31:16.572Z,13.20
2022-08-20T10:32:16.542Z,12.90
2022-08-20T10:33:16.523Z,12.90
2022-08-20T10:34:16.513Z,12.60
2022-08-20T10:35:16.563Z,13.10
2022-08-20T10:36:16.494Z,12.30
2022-08-20T10:37:16.483Z,11.40
2022-08-20T10:38:16.473Z,18.20
2022-08-20T10:39:16.474Z,19.60
2022-08-20T10:40:16.599Z,19.60
2022-08-20T10:41:16.463Z,21.60
2022-08-20T10:42:16.434Z,24.70
2022-08-20T10:43:16.464Z,20.90
2022-08-20T10:44:16.415Z,23.10
2022-08-20T10:45:26.179Z,21.60
2022-08-20T10:46:16.402Z,22.90
2022-08-20T10:47:21.861Z,20.20
2022-08-20T10:48:21.231Z,22.40
2022-08-20T10:49:17.403Z,19.50
2022-08-20T10:50:16.352Z,19.30
2022-08-20T10:51:16.332Z,23.40
2022-08-20T10:52:16.332Z,23.10
2022-08-20T10:53:16.320Z,23.10
2022-08-20T10:54:16.327Z,23.20
2022-08-20T10:55:16.329Z,23.40
2022-08-20T10:56:16.284Z,25.40
2022-08-20T10:57:16.278Z,25.10
2022-08-20T10:58:16.270Z,25.50
2022-08-20T10:59:16.253Z,27.80
2022-08-20T11:00:16.247Z,27.40
2022-08-20T11:01:16.253Z,29.40
2022-08-20T11:02:17.289Z,28.70
2022-08-20T11:03:16.203Z,25.70
2022-08-20T11:04:16.207Z,24.80
2022-08-20T11:05:16.183Z,28.20
2022-08-20T11:06:16.204Z,27.00
2022-08-20T11:07:16.331Z,28.10
2022-08-20T11:08:16.164Z,26.30
2022-08-20T11:09:17.185Z,24.80
2022-08-20T11:10:16.207Z,23.90
2022-08-20T11:11:16.200Z,25.70
2022-08-20T11:12:16.114Z,24.50
2022-08-20T11:13:16.105Z,24.50
2022-08-20T11:14:16.105Z,26.90
2022-08-20T11:15:16.075Z,26.80
2022-08-20T11:16:16.075Z,29.10
2022-08-20T11:17:16.085Z,27.00
2022-08-20T11:18:16.085Z,26.60
2022-08-20T11:19:16.045Z,29.40
2022-08-20T11:20:16.059Z,27.30
2022-08-20T11:21:16.105Z,23.10
2022-08-20T11:22:16.085Z,25.20
2022-08-20T11:23:16.276Z,22.80
2022-08-20T11:24:16.067Z,22.40
2022-08-20T11:25:15.985Z,25.30
2022-08-20T11:26:16.007Z,24.00
2022-08-20T11:27:15.997Z,24.40
2022-08-20T11:28:16.246Z,22.80
2022-08-20T11:29:16.966Z,23.20
2022-08-20T11:30:16.011Z,21.80
2022-08-20T11:31:15.946Z,20.50
2022-08-20T11:32:15.917Z,16.30
2022-08-20T11:33:15.917Z,23.10
2022-08-20T11:34:15.886Z,17.00
2022-08-20T11:36:16.908Z,19.30
2022-08-20T11:37:15.847Z,15.20
2022-08-20T11:38:15.847Z,15.80
2022-08-20T11:39:15.835Z,20.20
2022-08-20T11:40:15.849Z,17.40
2022-08-20T11:41:15.804Z,16.50
2022-08-20T11:42:15.840Z,18.90
2022-08-20T11:43:16.942Z,37.40
2022-08-20T11:44:20.650Z,38.80
2022-08-20T11:45:16.805Z,24.10
2022-08-20T11:46:15.757Z,15.60
2022-08-20T11:47:15.738Z,17.70
2022-08-20T11:48:15.795Z,18.60
2022-08-20T11:49:15.718Z,18.00
2022-08-20T11:50:15.708Z,15.40
2022-08-20T11:51:15.729Z,18.30
2022-08-20T11:52:15.707Z,17.90
2022-08-20T11:53:15.713Z,18.10
2022-08-20T11:54:15.670Z,19.20
2022-08-20T11:55:15.678Z,19.60
2022-08-20T11:56:15.679Z,15.60
2022-08-20T11:57:15.638Z,18.20
2022-08-20T11:58:15.627Z,18.90
2022-08-20T11:59:15.608Z,18.80
2022-08-20T12:00:15.607Z,17.70
2022-08-20T12:01:15.591Z,17.20
2022-08-20T12:02:15.669Z,17.10
2022-08-20T12:03:15.652Z,16.40
2022-08-20T12:04:15.569Z,16.80
2022-08-20T12:05:15.557Z,15.50
2022-08-20T12:06:15.539Z,16.90
2022-08-20T12:07:15.530Z,16.90
2022-08-20T12:08:25.505Z,15.80
2022-08-20T12:09:16.509Z,13.30
2022-08-20T12:10:15.499Z,14.80
2022-08-20T12:11:15.490Z,16.20
2022-08-20T12:12:15.480Z,13.50
2022-08-20T12:13:15.471Z,14.80
2022-08-20T12:14:15.490Z,12.90
2022-08-20T12:15:15.442Z,16.30
2022-08-20T12:16:15.457Z,14.70
2022-08-20T12:17:15.420Z,14.40
2022-08-20T12:18:15.430Z,13.70
2022-08-20T12:19:15.439Z,12.30
2022-08-20T12:20:15.407Z,13.40
2022-08-20T12:21:15.410Z,12.00
2022-08-20T12:22:17.536Z,11.80
2022-08-20T12:23:16.419Z,10.20
2022-08-20T12:24:15.352Z,9.80
2022-08-20T12:25:15.334Z,9.20
2022-08-20T12:26:15.391Z,11.90
2022-08-20T12:27:15.332Z,13.70
2022-08-20T12:28:15.468Z,14.10
2022-08-20T12:29:15.339Z,12.10
2022-08-20T12:30:16.240Z,10.50
2022-08-20T12:31:15.493Z,9.40
2022-08-20T12:32:15.288Z,7.30
2022-08-20T12:33:15.264Z,7.90
2022-08-20T12:34:16.515Z,9.20
2022-08-20T12:35:15.313Z,9.20
2022-08-20T12:36:15.304Z,8.30
2022-08-20T12:37:16.053Z,9.30
2022-08-20T12:38:15.471Z,9.30
2022-08-20T12:39:15.182Z,9.40
2022-08-20T12:40:15.240Z,8.60
2022-08-20T12:41:15.215Z,8.80
2022-08-20T12:42:15.162Z,8.60
2022-08-20T12:43:15.142Z,9.80
2022-08-20T12:44:15.132Z,7.70
2022-08-20T12:45:15.122Z,7.70
2022-08-20T12:46:15.142Z,8.40
2022-08-20T12:47:15.132Z,8.60
2022-08-20T12:48:15.092Z,9.60
2022-08-20T12:49:15.081Z,10.60
2022-08-20T12:50:15.113Z,10.10
2022-08-20T12:51:15.088Z,9.00
2022-08-20T12:52:15.055Z,9.90
2022-08-20T12:53:15.062Z,8.50
2022-08-20T12:54:15.063Z,9.30
2022-08-20T12:55:15.013Z,8.90
2022-08-20T12:56:15.039Z,11.00
2022-08-20T12:57:15.003Z,7.30
2022-08-20T12:58:14.994Z,7.60